createdAt,value
2024-01-29T00:00:54.911Z,2.35
2024-01-29T00:03:22.990Z,2.65
2024-01-29T00:05:50.887Z,2.78
2024-01-29T00:08:19.304Z,2.40
2024-01-29T00:10:47.663Z,2.80
2024-01-29T00:13:15.711Z,2.20
2024-01-29T00:15:43.608Z,2.42
2024-01-29T00:18:12.840Z,2.72
2024-01-29T00:20:40.713Z,2.58
2024-01-29T00:23:08.592Z,2.53
2024-01-29T00:25:36.469Z,2.58
2024-01-29T00:28:04.803Z,2.65
2024-01-29T00:30:32.940Z,2.80
2024-01-29T00:33:00.984Z,2.55
2024-01-29T00:35:30.293Z,2.53
2024-01-29T00:37:58.139Z,2.60
2024-01-29T00:40:26.721Z,2.20
2024-01-29T00:42:54.593Z,2.35
2024-01-29T00:45:22.657Z,2.70
2024-01-29T00:47:50.584Z,2.70
2024-01-29T00:50:18.433Z,2.90
2024-01-29T00:52:47.609Z,2.33
2024-01-29T00:55:15.624Z,2.63
2024-01-29T00:57:43.542Z,2.50
2024-01-29T01:00:12.225Z,2.20
2024-01-29T01:02:40.114Z,2.65
2024-01-29T01:05:08.988Z,2.80
2024-01-29T01:07:37.049Z,2.88
2024-01-29T01:10:07.292Z,2.88
2024-01-29T01:12:35.190Z,3.47
2024-01-29T01:15:03.023Z,2.83
2024-01-29T01:17:30.907Z,2.55
2024-01-29T01:19:58.891Z,2.53
2024-01-29T01:22:26.802Z,3.20
2024-01-29T01:24:54.710Z,3.10
2024-01-29T01:27:23.960Z,2.92
2024-01-29T01:29:52.050Z,2.60
2024-01-29T01:32:19.931Z,3.40
2024-01-29T01:34:47.796Z,2.53
2024-01-29T01:37:15.671Z,2.80
2024-01-29T01:39:43.527Z,2.85
2024-01-29T01:42:11.458Z,2.72
2024-01-29T01:44:40.649Z,2.67
2024-01-29T01:47:08.579Z,2.45
2024-01-29T01:49:36.612Z,2.47
2024-01-29T01:52:04.958Z,2.58
2024-01-29T01:54:32.926Z,2.60
2024-01-29T01:57:00.805Z,2.85
2024-01-29T01:59:28.663Z,2.25
2024-01-29T02:01:59.431Z,2.80
2024-01-29T02:04:27.498Z,3.00
2024-01-29T02:06:55.688Z,2.80
2024-01-29T02:09:23.772Z,2.60
2024-01-29T02:11:51.663Z,2.80
2024-01-29T02:14:19.616Z,2.60
2024-01-29T02:16:47.478Z,3.10
2024-01-29T02:19:18.042Z,3.05
2024-01-29T02:21:46.348Z,3.08
2024-01-29T02:24:15.670Z,2.97
2024-01-29T02:26:47.385Z,3.08
2024-01-29T02:29:15.293Z,2.92
2024-01-29T02:31:43.149Z,3.08
2024-01-29T02:34:11.613Z,3.25
2024-01-29T02:36:39.670Z,3.13
2024-01-29T02:39:09.211Z,2.65
2024-01-29T02:41:38.401Z,3.92
2024-01-29T02:44:07.012Z,3.45
2024-01-29T02:46:34.860Z,3.20
2024-01-29T02:49:02.885Z,3.05
2024-01-29T02:51:30.884Z,3.22
2024-01-29T02:53:58.852Z,3.00
2024-01-29T02:56:26.720Z,3.13
2024-01-29T02:58:56.044Z,3.40
2024-01-29T03:01:24.113Z,3.70
2024-01-29T03:03:52.066Z,3.70
2024-01-29T03:06:19.989Z,3.30
2024-01-29T03:08:48.025Z,3.30
2024-01-29T03:11:15.959Z,3.05
2024-01-29T03:13:45.109Z,3.50
2024-01-29T03:16:14.290Z,2.92
2024-01-29T03:18:42.365Z,3.42
2024-01-29T03:21:10.667Z,3.00
2024-01-29T03:23:38.561Z,4.13
2024-01-29T03:26:06.374Z,4.28
2024-01-29T03:28:34.157Z,3.38
2024-01-29T03:31:02.044Z,3.83
2024-01-29T03:33:31.452Z,3.53
2024-01-29T03:35:59.327Z,3.53
2024-01-29T03:38:27.201Z,3.22
2024-01-29T03:40:55.000Z,3.13
2024-01-29T03:43:23.169Z,2.97
2024-01-29T03:45:51.029Z,3.15
2024-01-29T03:48:18.951Z,3.33
2024-01-29T03:50:48.154Z,3.60
2024-01-29T03:53:16.001Z,3.88
2024-01-29T03:55:44.035Z,3.75
2024-01-29T03:58:11.949Z,3.97
2024-01-29T04:00:40.697Z,3.65
2024-01-29T04:03:08.793Z,2.95
2024-01-29T04:05:36.742Z,4.00
2024-01-29T04:08:06.968Z,4.07
2024-01-29T04:10:34.813Z,3.58
2024-01-29T04:13:02.744Z,3.50
2024-01-29T04:15:30.980Z,3.22
2024-01-29T04:17:58.959Z,3.70
2024-01-29T04:20:26.946Z,3.65
2024-01-29T04:22:54.813Z,3.65
2024-01-29T04:25:24.171Z,3.45
2024-01-29T04:27:52.598Z,3.28
2024-01-29T04:30:20.569Z,3.47
2024-01-29T04:32:48.423Z,3.42
2024-01-29T04:35:16.503Z,3.65
2024-01-29T04:37:44.417Z,3.50
2024-01-29T04:40:14.331Z,4.00
2024-01-29T04:42:43.606Z,3.72
2024-01-29T04:45:11.789Z,4.20
2024-01-29T04:47:39.722Z,3.65
2024-01-29T04:50:08.629Z,3.95
2024-01-29T04:52:36.533Z,3.70
2024-01-29T04:55:05.969Z,3.38
2024-01-29T04:57:34.036Z,2.92
2024-01-29T05:00:04.623Z,2.90
2024-01-29T05:02:32.520Z,3.53
2024-01-29T05:05:00.797Z,3.00
2024-01-29T05:07:28.648Z,3.17
2024-01-29T05:09:56.786Z,3.22
2024-01-29T05:12:24.967Z,3.10
2024-01-29T05:14:52.851Z,3.17
2024-01-29T05:17:22.108Z,2.88
2024-01-29T05:19:50.027Z,3.10
2024-01-29T05:22:18.012Z,3.78
2024-01-29T05:24:45.957Z,2.67
2024-01-29T05:27:13.790Z,3.05
2024-01-29T05:29:41.644Z,2.92
2024-01-29T05:32:08.508Z,3.05
2024-01-29T05:34:37.774Z,3.67
2024-01-29T05:37:05.967Z,4.15
2024-01-29T05:39:33.937Z,4.30
2024-01-29T05:42:01.814Z,4.32
2024-01-29T05:44:29.668Z,4.20
2024-01-29T05:46:57.512Z,3.90
2024-01-29T05:49:25.582Z,4.90
2024-01-29T05:51:54.808Z,4.25
2024-01-29T05:54:22.737Z,4.63
2024-01-29T05:56:51.859Z,4.32
2024-01-29T05:59:19.870Z,4.13
2024-01-29T06:01:48.111Z,4.65
2024-01-29T06:04:16.249Z,3.92
2024-01-29T06:06:44.598Z,4.43
2024-01-29T06:09:14.021Z,3.97
2024-01-29T06:11:41.888Z,3.97
2024-01-29T06:14:09.725Z,3.97
2024-01-29T06:16:37.553Z,4.05
2024-01-29T06:19:05.613Z,4.80
2024-01-29T06:21:33.563Z,4.18
2024-01-29T06:24:01.410Z,4.22
2024-01-29T06:26:30.656Z,4.40
2024-01-29T06:28:59.684Z,4.15
2024-01-29T06:31:27.698Z,4.40
2024-01-29T06:33:58.184Z,4.05
2024-01-29T06:36:26.510Z,3.90
2024-01-29T06:38:54.406Z,4.47
2024-01-29T06:41:22.338Z,4.35
2024-01-29T06:43:51.660Z,4.50
2024-01-29T06:46:19.519Z,4.70
2024-01-29T06:48:47.413Z,4.18
2024-01-29T06:51:16.372Z,4.03
2024-01-29T06:53:44.348Z,4.20
2024-01-29T06:56:12.285Z,5.38
2024-01-29T06:58:40.155Z,4.90
2024-01-29T07:01:09.539Z,5.50
2024-01-29T07:03:37.652Z,5.10
2024-01-29T07:06:06.178Z,4.72
2024-01-29T07:08:34.094Z,5.20
2024-01-29T07:11:01.960Z,5.95
2024-01-29T07:13:29.832Z,6.07
2024-01-29T07:15:57.709Z,5.40
2024-01-29T07:18:27.047Z,5.63
2024-01-29T07:20:54.964Z,5.40
2024-01-29T07:23:23.398Z,6.10
2024-01-29T07:25:51.255Z,6.55
2024-01-29T07:28:19.175Z,5.18
2024-01-29T07:30:47.062Z,5.32
2024-01-29T07:33:15.116Z,5.13
2024-01-29T07:35:44.437Z,4.63
2024-01-29T07:38:12.252Z,4.63
2024-01-29T07:40:40.080Z,5.03
2024-01-29T07:43:08.028Z,4.75
2024-01-29T07:45:36.072Z,4.78
2024-01-29T07:48:06.054Z,4.82
2024-01-29T07:50:34.010Z,5.25
2024-01-29T07:53:03.865Z,5.47
2024-01-29T07:55:31.840Z,4.88
2024-01-29T07:57:59.850Z,4.82
2024-01-29T08:00:27.853Z,5.38
2024-01-29T08:02:55.754Z,4.65
2024-01-29T08:05:23.818Z,4.80
2024-01-29T08:07:52.156Z,4.95
2024-01-29T08:10:21.312Z,5.55
2024-01-29T08:12:49.193Z,4.85
2024-01-29T08:15:17.339Z,21.58
2024-01-29T08:17:45.256Z,26.52
2024-01-29T08:20:13.564Z,48.67
2024-01-29T08:22:41.564Z,12.65
2024-01-29T08:25:09.981Z,7.43
2024-01-29T08:27:39.249Z,6.68
2024-01-29T08:30:08.432Z,5.35
2024-01-29T08:32:36.278Z,5.30
2024-01-29T08:35:04.383Z,4.95
2024-01-29T08:37:32.220Z,4.72
2024-01-29T08:40:00.184Z,4.95
2024-01-29T08:42:28.152Z,5.25
2024-01-29T08:44:57.589Z,4.97
2024-01-29T08:47:26.066Z,5.30
2024-01-29T08:49:54.098Z,4.78
2024-01-29T08:52:21.937Z,5.55
2024-01-29T08:54:50.243Z,5.32
2024-01-29T08:57:18.199Z,5.47
2024-01-29T08:59:46.044Z,5.40
2024-01-29T09:02:15.218Z,6.05
2024-01-29T09:04:43.635Z,5.82
2024-01-29T09:07:11.766Z,5.70
2024-01-29T09:09:39.663Z,5.40
2024-01-29T09:12:07.948Z,5.80
2024-01-29T09:14:35.741Z,5.85
2024-01-29T09:17:03.522Z,6.97
2024-01-29T09:19:32.793Z,6.25
2024-01-29T09:22:00.725Z,8.38
2024-01-29T09:24:30.072Z,8.88
2024-01-29T09:26:59.152Z,8.32
2024-01-29T09:29:27.006Z,10.75
2024-01-29T09:31:54.877Z,10.50
2024-01-29T09:34:25.970Z,10.20
2024-01-29T09:36:55.458Z,10.07
2024-01-29T09:39:25.763Z,9.13
2024-01-29T09:41:54.153Z,8.48
2024-01-29T09:44:21.989Z,7.93
2024-01-29T09:46:49.806Z,10.25
2024-01-29T09:49:17.943Z,10.63
2024-01-29T09:51:45.853Z,11.02
2024-01-29T09:54:15.034Z,10.73
2024-01-29T09:56:42.902Z,11.50
2024-01-29T09:59:11.482Z,11.07
2024-01-29T10:01:39.432Z,11.35
2024-01-29T10:04:07.605Z,11.07
2024-01-29T10:06:35.565Z,10.70
2024-01-29T10:09:05.686Z,11.70
2024-01-29T10:11:34.911Z,10.73
2024-01-29T10:14:03.488Z,10.73
2024-01-29T10:16:31.697Z,10.95
2024-01-29T10:18:59.959Z,11.05
2024-01-29T10:21:28.158Z,10.90
2024-01-29T10:23:56.682Z,10.27
2024-01-29T10:26:24.632Z,10.65
2024-01-29T10:29:03.497Z,10.18
2024-01-29T10:31:31.449Z,10.70
2024-01-29T10:33:59.755Z,10.57
2024-01-29T10:36:30.444Z,10.65
2024-01-29T10:39:00.678Z,10.93
2024-01-29T10:41:28.625Z,10.85
2024-01-29T10:43:56.562Z,11.25
2024-01-29T10:46:26.865Z,10.90
2024-01-29T10:48:55.103Z,10.63
2024-01-29T10:51:23.164Z,10.20
2024-01-29T10:53:51.002Z,11.07
2024-01-29T10:56:19.434Z,10.63
2024-01-29T10:58:47.264Z,11.00
2024-01-29T11:01:15.138Z,11.15
2024-01-29T11:03:44.375Z,10.90
2024-01-29T11:06:15.834Z,11.63
2024-01-29T11:08:44.608Z,10.77
2024-01-29T11:11:12.453Z,11.90
2024-01-29T11:13:40.289Z,11.10
2024-01-29T11:16:08.651Z,11.40
2024-01-29T11:18:37.051Z,10.63
2024-01-29T11:21:10.886Z,10.52
2024-01-29T11:23:43.391Z,10.52
2024-01-29T11:26:13.276Z,11.02
2024-01-29T11:28:41.175Z,10.40
2024-01-29T11:31:13.220Z,11.10
2024-01-29T11:33:41.680Z,10.60
2024-01-29T11:36:13.881Z,11.15
2024-01-29T11:38:41.804Z,10.70
2024-01-29T11:41:09.633Z,10.70
2024-01-29T11:43:37.540Z,10.60
2024-01-29T11:46:05.616Z,11.05
2024-01-29T11:48:33.661Z,10.98
2024-01-29T11:51:01.903Z,11.43
2024-01-29T11:53:31.091Z,12.63
2024-01-29T11:55:58.953Z,11.70
2024-01-29T11:58:28.136Z,11.10
2024-01-29T12:00:56.135Z,10.80
2024-01-29T12:03:24.664Z,11.63
2024-01-29T12:05:53.290Z,11.07
2024-01-29T12:08:22.023Z,11.50
2024-01-29T12:10:51.482Z,11.60
2024-01-29T12:13:20.171Z,10.38
2024-01-29T12:15:48.528Z,11.65
2024-01-29T12:18:18.287Z,11.55
2024-01-29T12:20:48.189Z,11.38
2024-01-29T12:23:17.607Z,11.27
2024-01-29T12:25:46.005Z,11.70
2024-01-29T12:28:16.910Z,11.32
2024-01-29T12:30:45.296Z,11.52
2024-01-29T12:33:19.111Z,11.13
2024-01-29T12:35:46.986Z,11.45
2024-01-29T12:38:15.266Z,11.02
2024-01-29T12:40:45.073Z,10.48
2024-01-29T12:43:16.058Z,10.38
2024-01-29T12:45:45.403Z,11.43
2024-01-29T12:48:13.887Z,11.18
2024-01-29T12:50:42.338Z,10.25
2024-01-29T12:53:11.003Z,11.32
2024-01-29T12:55:38.809Z,11.30
2024-01-29T12:58:07.500Z,11.45
2024-01-29T13:00:38.595Z,10.77
2024-01-29T13:03:06.770Z,10.95
2024-01-29T13:05:34.681Z,12.43
2024-01-29T13:08:02.745Z,11.45
2024-01-29T13:10:31.314Z,10.27
2024-01-29T13:12:59.363Z,10.77
2024-01-29T13:15:27.300Z,10.95
2024-01-29T13:17:56.472Z,10.80
2024-01-29T13:20:24.354Z,10.27
2024-01-29T13:22:52.484Z,10.25
2024-01-29T13:25:20.329Z,10.80
2024-01-29T13:27:49.091Z,11.18
2024-01-29T13:30:17.133Z,11.35
2024-01-29T13:32:44.982Z,11.18
2024-01-29T13:35:14.402Z,11.35
2024-01-29T13:37:42.275Z,10.88
2024-01-29T13:40:11.008Z,11.07
2024-01-29T13:42:38.962Z,10.73
2024-01-29T13:45:08.631Z,10.68
2024-01-29T13:47:38.112Z,10.90
2024-01-29T13:50:07.812Z,11.43
2024-01-29T13:52:37.304Z,9.50
2024-01-29T13:55:05.597Z,10.00
2024-01-29T13:57:33.479Z,10.23
2024-01-29T14:00:04.394Z,10.18
2024-01-29T14:02:35.873Z,9.90
2024-01-29T14:05:05.680Z,9.55
2024-01-29T14:07:34.249Z,9.55
2024-01-29T14:10:03.859Z,9.57
2024-01-29T14:12:31.856Z,10.82
2024-01-29T14:15:03.295Z,12.18
2024-01-29T14:17:31.764Z,11.98
2024-01-29T14:20:00.778Z,11.13
2024-01-29T14:22:29.413Z,10.70
2024-01-29T14:24:57.574Z,11.23
2024-01-29T14:27:27.037Z,11.52
2024-01-29T14:29:56.039Z,11.13
2024-01-29T14:32:25.015Z,11.23
2024-01-29T14:34:53.078Z,12.23
2024-01-29T14:37:21.172Z,11.20
2024-01-29T14:39:49.138Z,11.18
2024-01-29T14:42:17.000Z,10.95
2024-01-29T14:44:46.151Z,11.57
2024-01-29T14:47:17.355Z,12.57
2024-01-29T14:49:45.798Z,12.35
2024-01-29T14:52:14.264Z,12.77
2024-01-29T14:54:42.235Z,11.80
2024-01-29T14:57:10.090Z,11.65
2024-01-29T14:59:38.177Z,11.65
2024-01-29T15:02:08.425Z,11.75
2024-01-29T15:04:36.649Z,11.52
2024-01-29T15:07:05.061Z,12.30
2024-01-29T15:09:33.934Z,12.55
2024-01-29T15:12:01.852Z,12.27
2024-01-29T15:14:29.708Z,12.70
2024-01-29T15:17:02.097Z,11.30
2024-01-29T15:19:31.580Z,11.57
2024-01-29T15:21:59.567Z,11.32
2024-01-29T15:24:27.505Z,12.02
2024-01-29T15:26:55.428Z,11.70
2024-01-29T15:29:23.413Z,11.77
2024-01-29T15:31:51.374Z,12.60
2024-01-29T15:34:20.327Z,11.07
2024-01-29T15:36:49.875Z,11.73
2024-01-29T15:39:18.887Z,10.82
2024-01-29T15:41:46.822Z,11.45
2024-01-29T15:44:14.938Z,12.10
2024-01-29T15:46:44.118Z,11.85
2024-01-29T15:49:12.129Z,11.45
2024-01-29T15:51:40.717Z,11.00
2024-01-29T15:54:10.004Z,11.15
2024-01-29T15:56:37.864Z,11.60
2024-01-29T15:59:06.004Z,11.55
2024-01-29T16:01:34.021Z,11.02
2024-01-29T16:04:02.578Z,10.65
2024-01-29T16:06:30.658Z,10.98
2024-01-29T16:08:58.614Z,11.57
2024-01-29T16:11:27.809Z,11.10
2024-01-29T16:13:55.652Z,10.90
2024-01-29T16:16:23.549Z,11.27
2024-01-29T16:18:51.543Z,10.98
2024-01-29T16:21:22.771Z,10.70
2024-01-29T16:23:51.515Z,11.55
2024-01-29T16:26:20.224Z,11.60
2024-01-29T16:28:49.449Z,9.80
2024-01-29T16:31:17.433Z,10.75
2024-01-29T16:33:45.619Z,10.20
2024-01-29T16:36:20.600Z,9.80
2024-01-29T16:38:48.788Z,10.63
2024-01-29T16:41:22.026Z,10.68
2024-01-29T16:43:52.200Z,10.25
2024-01-29T16:46:20.570Z,11.02
2024-01-29T16:48:48.714Z,11.07
2024-01-29T16:51:22.311Z,10.27
2024-01-29T16:53:50.257Z,10.60
2024-01-29T16:56:24.080Z,11.48
2024-01-29T16:58:53.340Z,10.38
2024-01-29T17:01:21.285Z,9.95
2024-01-29T17:03:49.404Z,10.70
2024-01-29T17:06:17.453Z,10.75
2024-01-29T17:08:45.429Z,10.52
2024-01-29T17:11:14.501Z,10.18
2024-01-29T17:13:43.180Z,10.05
2024-01-29T17:16:12.499Z,10.13
2024-01-29T17:18:40.608Z,10.05
2024-01-29T17:21:12.366Z,9.85
2024-01-29T17:23:40.697Z,10.38
2024-01-29T17:26:08.684Z,9.32
2024-01-29T17:28:36.589Z,10.10
2024-01-29T17:31:05.845Z,10.00
2024-01-29T17:33:36.057Z,10.93
2024-01-29T17:36:04.161Z,9.13
2024-01-29T17:38:32.070Z,11.32
2024-01-29T17:40:59.938Z,11.32
2024-01-29T17:43:28.358Z,10.60
2024-01-29T17:45:56.732Z,10.38
2024-01-29T17:48:26.255Z,10.63
2024-01-29T17:50:55.683Z,10.90
2024-01-29T17:53:26.215Z,11.63
2024-01-29T17:55:55.029Z,11.75
2024-01-29T17:58:22.955Z,10.95
2024-01-29T18:00:50.905Z,11.65
2024-01-29T18:03:18.930Z,11.25
2024-01-29T18:05:47.439Z,10.73
2024-01-29T18:08:16.729Z,10.63
2024-01-29T18:10:44.666Z,11.55
2024-01-29T18:13:12.748Z,11.25
2024-01-29T18:15:40.691Z,10.95
2024-01-29T18:18:08.801Z,11.10
2024-01-29T18:20:36.746Z,11.25
2024-01-29T18:23:04.839Z,10.63
2024-01-29T18:25:35.441Z,10.90
2024-01-29T18:28:05.411Z,11.73
2024-01-29T18:30:33.318Z,11.15
2024-01-29T18:33:01.237Z,10.88
2024-01-29T18:35:29.188Z,11.15
2024-01-29T18:37:57.011Z,11.65
2024-01-29T18:40:25.033Z,11.43
2024-01-29T18:42:54.947Z,11.55
2024-01-29T18:45:22.998Z,11.80
2024-01-29T18:47:51.447Z,11.77
2024-01-29T18:50:19.389Z,11.68
2024-01-29T18:52:47.301Z,11.70
2024-01-29T18:55:16.352Z,12.10
2024-01-29T18:57:44.787Z,12.07
2024-01-29T19:00:14.368Z,11.73
2024-01-29T19:02:44.536Z,11.65
2024-01-29T19:05:13.850Z,10.85
2024-01-29T19:07:43.257Z,9.80
2024-01-29T19:10:11.747Z,10.55
2024-01-29T19:12:39.729Z,11.27
2024-01-29T19:15:09.265Z,9.85
2024-01-29T19:17:38.922Z,9.95
2024-01-29T19:20:07.776Z,9.60
2024-01-29T19:22:36.240Z,10.82
2024-01-29T19:25:04.369Z,10.43
2024-01-29T19:27:32.254Z,9.77
2024-01-29T19:30:00.178Z,9.73
2024-01-29T19:32:28.856Z,9.48
2024-01-29T19:34:58.271Z,10.48
2024-01-29T19:37:28.740Z,10.10
2024-01-29T19:39:59.975Z,9.23
2024-01-29T19:42:29.996Z,9.88
2024-01-29T19:44:57.907Z,10.30
2024-01-29T19:47:25.811Z,9.00
2024-01-29T19:49:57.408Z,9.88
2024-01-29T19:52:28.666Z,10.23
2024-01-29T19:54:56.592Z,9.82
2024-01-29T19:57:24.517Z,9.98
2024-01-29T19:59:52.416Z,11.30
2024-01-29T20:02:20.446Z,11.95
2024-01-29T20:04:50.746Z,12.07
2024-01-29T20:07:18.875Z,12.82
2024-01-29T20:09:49.456Z,12.27
2024-01-29T20:12:19.173Z,11.73
2024-01-29T20:14:47.174Z,11.00
2024-01-29T20:17:15.010Z,11.13
2024-01-29T20:19:43.059Z,11.00
2024-01-29T20:22:11.358Z,10.30
2024-01-29T20:24:40.812Z,10.30
2024-01-29T20:27:10.080Z,10.32
2024-01-29T20:29:37.918Z,10.20
2024-01-29T20:32:06.236Z,9.65
2024-01-29T20:34:35.693Z,10.30
2024-01-29T20:37:03.757Z,10.90
2024-01-29T20:39:32.441Z,10.95
2024-01-29T20:42:00.368Z,11.05
2024-01-29T20:44:30.094Z,10.20
2024-01-29T20:46:57.985Z,11.35
2024-01-29T20:49:26.055Z,10.88
2024-01-29T20:51:56.586Z,10.82
2024-01-29T20:54:25.091Z,10.98
2024-01-29T20:56:56.568Z,10.30
2024-01-29T20:59:24.910Z,10.27
2024-01-29T21:01:54.300Z,10.38
2024-01-29T21:04:23.247Z,10.60
2024-01-29T21:06:52.953Z,10.30
2024-01-29T21:09:21.115Z,10.63
2024-01-29T21:11:49.063Z,10.80
2024-01-29T21:14:16.927Z,10.43
2024-01-29T21:16:44.850Z,10.07
2024-01-29T21:19:14.486Z,10.20
2024-01-29T21:21:44.369Z,9.98
2024-01-29T21:24:12.292Z,10.02
2024-01-29T21:26:40.153Z,9.65
2024-01-29T21:29:07.984Z,8.93
2024-01-29T21:31:35.847Z,10.13
2024-01-29T21:34:03.809Z,8.80
2024-01-29T21:36:33.165Z,9.35
2024-01-29T21:39:00.998Z,9.18
2024-01-29T21:41:28.814Z,8.82
2024-01-29T21:43:57.747Z,8.52
2024-01-29T21:46:26.059Z,9.40
2024-01-29T21:48:54.209Z,10.60
2024-01-29T21:51:22.242Z,9.82
2024-01-29T21:53:51.785Z,11.40
2024-01-29T21:56:19.783Z,12.80
2024-01-29T21:58:47.658Z,12.88
2024-01-29T22:01:15.702Z,11.45
2024-01-29T22:03:43.673Z,12.90
2024-01-29T22:06:11.756Z,11.50
2024-01-29T22:08:40.238Z,11.38
2024-01-29T22:11:09.390Z,10.55
2024-01-29T22:13:37.229Z,10.75
2024-01-29T22:16:05.525Z,9.55
2024-01-29T22:18:33.433Z,9.40
2024-01-29T22:21:03.006Z,9.05
2024-01-29T22:23:30.970Z,11.00
2024-01-29T22:25:58.792Z,10.30
2024-01-29T22:28:28.430Z,10.50
2024-01-29T22:30:57.951Z,10.02
2024-01-29T22:33:26.131Z,9.43
2024-01-29T22:35:54.379Z,10.93
2024-01-29T22:38:22.261Z,10.45
2024-01-29T22:40:50.090Z,10.90
2024-01-29T22:43:18.675Z,10.65
2024-01-29T22:45:48.043Z,10.70
2024-01-29T22:48:16.325Z,10.00
2024-01-29T22:50:44.203Z,9.15
2024-01-29T22:53:12.148Z,9.75
2024-01-29T22:55:40.008Z,10.88
2024-01-29T22:58:08.085Z,9.27
2024-01-29T23:00:35.989Z,9.02
2024-01-29T23:03:05.781Z,10.18
2024-01-29T23:05:33.970Z,10.25
2024-01-29T23:08:01.850Z,9.70
2024-01-29T23:10:29.712Z,9.10
2024-01-29T23:12:57.568Z,9.57
2024-01-29T23:15:25.550Z,9.88
2024-01-29T23:17:53.398Z,9.52
2024-01-29T23:20:23.164Z,10.00
2024-01-29T23:22:51.637Z,9.50
2024-01-29T23:25:19.605Z,10.05
2024-01-29T23:27:47.555Z,9.40
2024-01-29T23:30:15.608Z,9.27
2024-01-29T23:32:43.600Z,9.60
2024-01-29T23:35:11.466Z,9.73
2024-01-29T23:37:40.622Z,10.93
2024-01-29T23:40:09.366Z,11.73
2024-01-29T23:42:37.272Z,11.82
2024-01-29T23:45:06.354Z,11.55
2024-01-29T23:47:34.257Z,12.25
2024-01-29T23:50:02.251Z,10.98
2024-01-29T23:52:30.504Z,10.80
2024-01-29T23:54:59.898Z,11.00
2024-01-29T23:57:27.799Z,10.45
2024-01-29T23:59:55.701Z,10.70
